• Join FlightAware (Why Join?)
  • Login
  • US Flag 
09:14PM EDT


 

Airport Tracker/Info


-or-


 

Live Flight TrackerFlight Track Log ✈ SWA4356 ✈ 06-Jan-2014 ✈ KDCA - KHOU

Flight Track Log - Related Links

Times and Time Zones

All times are in EST time to prevent confusion due to time zone crossing. See the SWA4356 flight status page for this flight to view local times or setup timezone preferences in your user account.

Time Position Orientation Groundspeed Altitude Reporting Facility
EST Latitude Longitude Course Direction KTS MPH feet Rate Location/Type
05:28PM 38.8833 -77.0500 303° West 147 169 2,400  Level Potomac TRACON
05:29PM 38.9167 -77.1167 303° West 201 231 5,700 3,180 Climbing Potomac TRACON
05:30PM 38.9500 -77.1833 303° West 226 260 8,800 2,520 Climbing Potomac TRACON
05:31PM 38.9333 -77.2500 252° West 242 278 11,100 1,800 Climbing Potomac TRACON
05:32PM 38.8667 -77.3167 218° Southwest 293 337 12,500 1,500 Climbing Potomac TRACON
05:34PM 38.7489 -77.4522 222° Southwest 314 361 15,700 2,160 Climbing Washington Center
05:35PM 38.6936 -77.5175 223° Southwest 296 341 19,300 2,580 Climbing Washington Center
05:36PM 38.6342 -77.5822 220° Southwest 285 328 21,000 900 Climbing Washington Center
05:37PM 38.5767 -77.6525 224° Southwest 285 328 21,200 1,020 Climbing Washington Center
05:38PM 38.5086 -77.7275 221° Southwest 290 334 23,100 1,860 Climbing Washington Center
05:39PM 38.4592 -77.8189 235° Southwest 295 339 24,900 1,920 Climbing Washington Center
05:40PM 38.4114 -77.9103 236° Southwest 311 358 27,000 1,680 Climbing Washington Center
05:41PM 38.3661 -77.9961 236° Southwest 311 358 28,400 1,500 Climbing Washington Center
05:42PM 38.3225 -78.0822 237° Southwest 300 345 30,000 780 Climbing Washington Center
05:43PM 38.2769 -78.1653 235° Southwest 295 339 30,000 120 Level Washington Center
05:44PM 38.2336 -78.2508 237° Southwest 295 339 30,300 1,200 Climbing Washington Center
05:45PM 38.1900 -78.3339 236° Southwest 295 339 32,500 1,860 Climbing Washington Center
05:46PM 38.1486 -78.4092 235° Southwest 284 327 34,000 1,260 Climbing Washington Center
05:47PM 38.1111 -78.4922 240° Southwest 274 315 35,100 960 Climbing Washington Center
05:48PM 38.0906 -78.5678 251° West 264 304 36,000 420 Climbing Washington Center
05:49PM 38.0611 -78.6564 247° West 264 304 36,000  Level Washington Center
05:50PM 38.0297 -78.7447 246° West 270 311 36,000  Level Washington Center
05:51PM 37.9958 -78.8408 246° West 276 318 36,000  Level Washington Center
05:52PM 37.9664 -78.9289 247° West 276 318 36,000  Level Washington Center
05:53PM 37.9344 -79.0197 246° West 276 318 36,000  Level Washington Center
05:54PM 37.9028 -79.1106 246° West 276 318 36,000  Level Washington Center
05:55PM 37.8628 -79.1928 238° Southwest 276 318 36,000  Level Washington Center
05:56PM 37.8250 -79.2697 238° Southwest 283 326 36,000  Level Washington Center
05:57PM 37.7828 -79.3544 238° Southwest 288 331 36,000  Level Washington Center
05:58PM 37.7403 -79.4364 237° Southwest 288 331 36,000  Level Washington Center
05:59PM 37.6983 -79.5131 235° Southwest 282 325 36,000  Level Washington Center
06:00PM 37.6536 -79.6025 238° Southwest 270 311 36,000  Level Washington Center
06:01PM 37.6133 -79.6842 238° Southwest 275 316 36,000  Level Washington Center
06:02PM 37.5708 -79.7658 237° Southwest 275 316 36,000 120 Level Washington Center
06:03PM 37.5306 -79.8475 238° Southwest 281 323 36,300 360 Climbing Washington Center
06:04PM 37.4942 -79.9267 240° Southwest 288 331 36,800 600 Climbing Washington Center
06:05PM 37.4494 -80.0103 236° Southwest 288 331 37,500 540 Climbing Washington Center
06:06PM 37.4044 -80.0992 238° Southwest 288 331 38,000 180 Climbing Washington Center
06:08PM 37.3378 -80.2253 236° Southwest 288 331 38,000  Level Atlanta Center
06:09PM 37.2925 -80.3136 237° Southwest 288 331 38,000  Level Atlanta Center
06:10PM 37.2492 -80.3992 238° Southwest 294 338 38,000  Level Atlanta Center
06:11PM 37.2036 -80.4847 236° Southwest 294 338 38,000  Level Atlanta Center
06:12PM 37.1603 -80.5700 237° Southwest 299 344 38,000  Level Atlanta Center
06:13PM 37.1089 -80.6686 237° Southwest 299 344 38,000  Level Atlanta Center
06:14PM 37.0717 -80.7533 241° Southwest 299 344 38,000  Level Atlanta Center
06:15PM 37.0364 -80.8458 244° Southwest 299 344 38,000  Level Atlanta Center
06:16PM 37.0053 -80.9356 247° West 289 333 38,000  Level Atlanta Center
06:17PM 36.9742 -81.0250 246° West 283 326 38,000  Level Atlanta Center
06:18PM 36.9428 -81.1067 244° Southwest 283 326 38,000  Level Atlanta Center
06:19PM 36.9117 -81.1961 247° West 278 320 38,000  Level Atlanta Center
06:20PM 36.8803 -81.2856 246° West 278 320 38,000  Level Atlanta Center
06:21PM 36.8469 -81.3747 245° Southwest 278 320 38,000  Level Atlanta Center
06:22PM 36.8117 -81.4797 247° West 284 327 38,000  Level Atlanta Center
06:23PM 36.7800 -81.5742 247° West 289 333 38,000  Level Atlanta Center
06:24PM 36.7464 -81.6683 246° West 297 342 38,000  Level Atlanta Center
06:25PM 36.7108 -81.7653 245° Southwest 297 342 38,000  Level Atlanta Center
06:26PM 36.6750 -81.8594 245° Southwest 297 342 38,000  Level Atlanta Center
06:27PM 36.6411 -81.9536 246° West 297 342 38,000  Level Atlanta Center
06:28PM 36.6053 -82.0475 245° Southwest 302 348 38,000  Level Atlanta Center
06:29PM 36.5714 -82.1439 246° West 302 348 38,000  Level Atlanta Center
06:30PM 36.5353 -82.2431 246° West 302 348 38,000  Level Atlanta Center
06:31PM 36.4969 -82.3369 243° Southwest 307 353 38,000  Level Atlanta Center
06:32PM 36.4608 -82.4356 246° West 307 353 38,000  Level Atlanta Center
06:33PM 36.4244 -82.5319 245° Southwest 307 353 38,000  Level Atlanta Center
06:34PM 36.3881 -82.6281 245° Southwest 307 353 38,000  Level Atlanta Center
06:35PM 36.3556 -82.7136 245° Southwest 307 353 38,000  Level Atlanta Center
06:36PM 36.3192 -82.8147 246° West 307 353 38,000  Level Atlanta Center
06:37PM 36.2825 -82.9081 244° Southwest 307 353 38,000  Level Atlanta Center
06:38PM 36.2458 -83.0064 245° Southwest 307 353 38,000  Level Atlanta Center
06:39PM 36.2092 -83.1019 245° Southwest 307 353 38,000  Level Atlanta Center
06:40PM 36.1722 -83.1978 244° Southwest 307 353 38,000  Level Atlanta Center
06:41PM 36.1372 -83.2931 246° West 307 353 38,000  Level Atlanta Center
06:42PM 36.1003 -83.3911 245° Southwest 307 353 38,000  Level Atlanta Center
06:43PM 36.0611 -83.4892 244° Southwest 318 366 38,000  Level Atlanta Center
06:44PM 36.0261 -83.5869 246° West 318 366 38,000  Level Atlanta Center
06:45PM 35.9869 -83.6819 243° Southwest 318 366 38,000  Level Atlanta Center
06:46PM 35.9517 -83.7769 245° Southwest 318 366 38,000  Level Atlanta Center
06:47PM 35.9142 -83.8722 244° Southwest 318 366 38,000  Level Atlanta Center
06:48PM 35.8642 -83.9542 233° Southwest 313 360 38,000  Level Atlanta Center
06:49PM 35.8081 -84.0311 228° Southwest 313 360 38,000  Level Atlanta Center
06:50PM 35.7494 -84.1156 229° Southwest 313 360 38,000  Level Atlanta Center
06:51PM 35.6911 -84.1972 229° Southwest 313 360 38,000  Level Atlanta Center
06:52PM 35.6347 -84.2739 228° Southwest 313 360 38,000  Level Atlanta Center
06:53PM 35.5761 -84.3553 228° Southwest 318 366 38,000  Level Atlanta Center
06:54PM 35.5175 -84.4342 228° Southwest 318 366 38,000  Level Atlanta Center
06:55PM 35.4586 -84.5156 228° Southwest 318 366 38,000  Level Atlanta Center
06:56PM 35.3978 -84.6019 229° Southwest 318 366 38,000  Level Atlanta Center
06:57PM 35.3389 -84.6803 227° Southwest 318 366 38,000  Level Atlanta Center
06:58PM 35.2844 -84.7589 230° Southwest 318 366 38,000  Level Atlanta Center
06:59PM 35.2275 -84.8344 227° Southwest 313 360 38,000  Level Atlanta Center
07:00PM 35.1706 -84.9103 227° Southwest 313 360 38,000  Level Atlanta Center
07:01PM 35.1158 -84.9858 228° Southwest 313 360 38,000  Level Atlanta Center
07:02PM 35.0631 -85.0614 230° Southwest 308 354 38,000  Level Atlanta Center
07:03PM 35.0061 -85.1367 227° Southwest 308 354 38,000  Level Atlanta Center
07:04PM 34.9511 -85.2119 228° Southwest 308 354 38,000  Level Atlanta Center
07:05PM 34.8961 -85.2872 228° Southwest 308 354 38,000  Level Atlanta Center
07:06PM 34.8392 -85.3597 226° Southwest 308 354 38,000  Level Atlanta Center
07:07PM 34.7839 -85.4375 229° Southwest 308 354 38,000  Level Atlanta Center
07:08PM 34.7267 -85.5147 228° Southwest 308 354 38,000  Level Atlanta Center
07:09PM 34.6694 -85.5894 227° Southwest 308 354 38,000  Level Atlanta Center
07:10PM 34.6122 -85.6642 227° Southwest 308 354 38,000 -180 Level Atlanta Center
07:11PM 34.5547 -85.7411 228° Southwest 308 354 37,700 -720 Descending Atlanta Center
07:12PM 34.5017 -85.8108 227° Southwest 301 346 36,600 -900 Descending Atlanta Center
07:13PM 34.4569 -85.8728 229° Southwest 289 333 36,000 -300 Descending Atlanta Center
07:14PM 34.4017 -85.9394 225° Southwest 289 333 36,000  Level Atlanta Center
07:15PM 34.3503 -86.0114 229° Southwest 289 333 36,000  Level Atlanta Center
07:16PM 34.2969 -86.0806 227° Southwest 289 333 36,000  Level Atlanta Center
07:17PM 34.2458 -86.1472 227° Southwest 289 333 36,000  Level Atlanta Center
07:18PM 34.1925 -86.2161 227° Southwest 289 333 36,000  Level Atlanta Center
07:19PM 34.1433 -86.2853 229° Southwest 289 333 36,000  Level Atlanta Center
07:20PM 34.0897 -86.3514 226° Southwest 289 333 36,000  Level Atlanta Center
07:21PM 34.0342 -86.4253 228° Southwest 284 327 36,000  Level Atlanta Center
07:22PM 33.9828 -86.4939 228° Southwest 284 327 36,000  Level Atlanta Center
07:23PM 33.9314 -86.5600 227° Southwest 284 327 36,000  Level Atlanta Center
07:24PM 33.8775 -86.6308 228° Southwest 284 327 36,000  Level Atlanta Center
07:25PM 33.8261 -86.6969 227° Southwest 284 327 36,000  Level Atlanta Center
07:26PM 33.7725 -86.7653 227° Southwest 284 327 36,000  Level Atlanta Center
07:27PM 33.7208 -86.8311 227° Southwest 279 321 36,000  Level Atlanta Center
07:28PM 33.6669 -86.9017 227° Southwest 279 321 36,000  Level Atlanta Center
07:29PM 33.6339 -86.9828 244° Southwest 279 321 36,000  Level Atlanta Center
07:30PM 33.6006 -87.0667 245° Southwest 274 315 36,000  Level Atlanta Center
07:31PM 33.5692 -87.1503 246° West 274 315 36,000  Level Atlanta Center
07:32PM 33.5381 -87.2289 245° Southwest 274 315 36,000  Level Atlanta Center
07:34PM 33.4603 -87.4242 245° Southwest 273 314 36,000  Level Memphis Center
07:35PM 33.4269 -87.5061 244° Southwest 274 315 36,000  Level Memphis Center
07:36PM 33.3933 -87.5889 244° Southwest 276 318 36,000  Level Memphis Center
07:37PM 33.3592 -87.6725 244° Southwest 278 320 36,000  Level Memphis Center
07:38PM 33.3256 -87.7553 244° Southwest 277 319 36,000  Level Memphis Center
07:39PM 33.2850 -87.8531 244° Southwest 275 316 36,000  Level Memphis Center
07:40PM 33.2511 -87.9372 244° Southwest 278 320 36,000  Level Memphis Center
07:41PM 33.2175 -88.0211 244° Southwest 280 322 36,000  Level Memphis Center
07:42PM 33.1822 -88.1028 243° Southwest 278 320 36,000  Level Memphis Center
07:43PM 33.1494 -88.1875 245° Southwest 280 322 36,000  Level Memphis Center
07:44PM 33.1167 -88.2661 244° Southwest 280 322 36,000  Level Memphis Center
07:45PM 33.0822 -88.3461 243° Southwest 274 315 36,000  Level Memphis Center
07:46PM 33.0411 -88.4469 244° Southwest 280 322 36,000  Level Memphis Center
07:47PM 33.0064 -88.5317 244° Southwest 283 326 36,000  Level Memphis Center
07:48PM 32.9706 -88.6144 243° Southwest 282 325 36,000  Level Memphis Center
07:49PM 32.9364 -88.6975 244° Southwest 281 323 36,000  Level Memphis Center
07:50PM 32.9014 -88.7800 243° Southwest 280 322 36,000  Level Memphis Center
07:51PM 32.8664 -88.8639 244° Southwest 282 325 36,000  Level Memphis Center
07:52PM 32.8308 -88.9483 243° Southwest 285 328 36,000  Level Memphis Center
07:53PM 32.7956 -89.0333 244° Southwest 286 329 36,000  Level Memphis Center
07:54PM 32.7525 -89.1331 243° Southwest 284 327 36,000  Level Memphis Center
07:55PM 32.7169 -89.2183 244° Southwest 287 330 36,000  Level Memphis Center
07:57PM 32.6808 -89.3025 243° Southwest 286 329 36,000  Level Memphis Center
07:58PM 32.6444 -89.3881 243° Southwest 288 331 36,000  Level Memphis Center
07:59PM 32.6072 -89.4744 243° Southwest 292 336 36,000  Level Memphis Center
08:00PM 32.5700 -89.5614 243° Southwest 294 338 36,000  Level Memphis Center
08:01PM 32.5325 -89.6497 243° Southwest 297 342 36,000  Level Memphis Center
08:02PM 32.4950 -89.7369 243° Southwest 298 343 36,000  Level Memphis Center
08:03PM 32.4567 -89.8233 242° Southwest 296 341 36,000  Level Memphis Center
08:04PM 32.4203 -89.9108 244° Southwest 296 341 36,000  Level Memphis Center
08:05PM 32.3756 -90.0128 243° Southwest 292 336 36,000  Level Memphis Center
08:06PM 32.3375 -90.0992 242° Southwest 294 338 36,000  Level Memphis Center
08:07PM 32.2994 -90.1861 243° Southwest 297 342 36,000  Level Memphis Center
08:08PM 32.2611 -90.2733 243° Southwest 298 343 36,000  Level Memphis Center
08:09PM 32.2225 -90.3606 242° Southwest 300 345 36,000  Level Memphis Center
08:10PM 32.1839 -90.4500 243° Southwest 304 350 36,000  Level Memphis Center
08:11PM 32.1461 -90.5375 243° Southwest 303 349 36,000  Level Memphis Center
08:12PM 32.1097 -90.6192 242° Southwest 300 345 36,000  Level Houston Center
08:13PM 32.0622 -90.7261 242° Southwest 306 352 36,000  Level Houston Center
08:14PM 32.0225 -90.8153 242° Southwest 302 348 36,000  Level Houston Center
08:15PM 31.9842 -90.9017 242° Southwest 298 343 36,000  Level Houston Center
08:16PM 31.9442 -90.9911 242° Southwest 306 352 36,000  Level Houston Center
08:17PM 31.9061 -91.0786 243° Southwest 301 346 36,000  Level Houston Center
08:18PM 31.8644 -91.1675 241° Southwest 308 354 36,000  Level Houston Center
08:19PM 31.8261 -91.2547 243° Southwest 303 349 36,000  Level Houston Center
08:20PM 31.7864 -91.3433 242° Southwest 306 352 36,000  Level Houston Center
08:21PM 31.7375 -91.4497 242° Southwest 310 357 36,000  Level Houston Center
08:22PM 31.6969 -91.5389 242° Southwest 311 358 36,000  Level Houston Center
08:23PM 31.6567 -91.6289 242° Southwest 313 360 36,000  Level Houston Center
08:24PM 31.6161 -91.7189 242° Southwest 313 360 36,000  Level Houston Center
08:25PM 31.5744 -91.8086 241° Southwest 314 361 36,000  Level Houston Center
08:26PM 31.5339 -91.8989 242° Southwest 314 361 36,000  Level Houston Center
08:27PM 31.4919 -91.9886 241° Southwest 315 362 36,000  Level Houston Center
08:28PM 31.4433 -92.0922 241° Southwest 316 364 36,000  Level Houston Center
08:29PM 31.4039 -92.1825 243° Southwest 314 361 36,000  Level Houston Center
08:30PM 31.3611 -92.2717 241° Southwest 314 361 36,000  Level Houston Center
08:31PM 31.3194 -92.3600 241° Southwest 313 360 36,000  Level Houston Center
08:32PM 31.2792 -92.4503 242° Southwest 313 360 36,000  Level Houston Center
08:33PM 31.2389 -92.5417 243° Southwest 315 362 36,000  Level Houston Center
08:34PM 31.1994 -92.6575 248° West 320 368 36,000  Level Houston Center
08:35PM 31.1644 -92.7519 247° West 318 366 36,000  Level Houston Center
08:36PM 31.1294 -92.8464 247° West 319 367 36,000  Level Houston Center
08:37PM 31.0950 -92.9406 247° West 317 365 36,000  Level Houston Center
08:39PM 31.0594 -93.0347 246° West 317 365 36,000  Level Houston Center
08:40PM 31.0242 -93.1286 246° West 317 365 36,000  Level Houston Center
08:41PM 30.9892 -93.2236 247° West 319 367 36,000  Level Houston Center
08:42PM 30.9464 -93.3367 246° West 321 369 36,000  Level Houston Center
08:43PM 30.9103 -93.4311 246° West 321 369 36,000  Level Houston Center
08:44PM 30.8747 -93.5256 246° West 321 369 36,000  Level Houston Center
08:45PM 30.8392 -93.6219 247° West 326 375 36,000  Level Houston Center
08:46PM 30.8025 -93.7194 246° West 331 381 36,000 -180 Level Houston Center
08:47PM 30.7650 -93.8147 245° Southwest 330 380 35,700 -1,320 Descending Houston Center
08:48PM 30.7242 -93.9258 247° West 318 366 33,300 -2,220 Descending Houston Center
08:49PM 30.6889 -94.0172 246° West 312 359 31,200 -2,100 Descending Houston Center
08:50PM 30.6539 -94.1094 246° West 313 360 29,100 -2,340 Descending Houston Center
08:51PM 30.6172 -94.2039 246° West 319 367 26,500 -2,520 Descending Houston Center
08:51PM 30.6075 -94.2306 247° West 325 374 26,000 -2,100 Descending Houston Center
08:52PM 30.5772 -94.3064 245° Southwest 347 399 24,400 -2,220 Descending Houston Center
08:52PM 30.5622 -94.3458 246° West 351 404 23,500 -2,460 Descending Houston Center
08:53PM 30.5383 -94.4083 246° West 349 402 21,900 -2,520 Descending Houston Center
08:53PM 30.5203 -94.4533 245° Southwest 355 409 21,000 -2,100 Descending Houston Center
08:54PM 30.4972 -94.5103 245° Southwest 351 404 19,800 -2,160 Descending Houston Center
08:54PM 30.4658 -94.5647 236° Southwest 345 397 18,600 -1,500 Descending Houston Center
08:55PM 30.4356 -94.6086 231° Southwest 342 394 18,300 -1,020 Descending Houston Center
08:55PM 30.4089 -94.6494 233° Southwest 334 384 17,600 -1,800 Descending Houston Center
08:56PM 30.3817 -94.6928 234° Southwest 332 382 16,500 -2,460 Descending Houston Center
08:56PM 30.3561 -94.7339 234° Southwest 320 368 15,100 -2,640 Descending Houston Center
08:57PM 30.3272 -94.7767 232° Southwest 328 377 13,800 -1,980 Descending Houston Center
08:57PM 30.2975 -94.8236 234° Southwest 338 389 13,100 -900 Descending Houston Center
08:58PM 30.2722 -94.8614 232° Southwest 331 381 12,900 -1,200 Descending Houston Center
08:58PM 30.2386 -94.8892 216° Southwest 339 390 12,000 -1,380 Descending Houston Center
08:59PM 30.1903 -94.9119 202° Southwest 342 394 11,500 -900 Descending Houston Center
08:59PM 30.1422 -94.9375 205° Southwest 333 383 11,000 -1,200 Descending Houston Center
09:00PM 30.0897 -94.9650 204° Southwest 332 382 10,300 -1,020 Descending Houston Center
09:00PM 30.0583 -94.9817 205° Southwest 331 381 10,000 -300 Descending Houston Center
09:01PM 30.0069 -95.0083 204° Southwest 328 377 10,000  Level Houston Center
09:01PM 29.9822 -95.0225 206° Southwest 326 375 10,000  Level Houston Center
09:02PM 29.9239 -95.0514 203° Southwest 327 376 10,000  Level Houston Center
09:02PM 29.8981 -95.0644 204° Southwest 327 376 10,000  Level Houston Center
09:03PM 29.8414 -95.0942 204° Southwest 326 375 10,000  Level Houston Center
09:03PM 29.8139 -95.1086 205° Southwest 316 364 10,000 -720 Level Houston Center
09:04PM 29.7642 -95.1344 204° Southwest 310 357 9,300 -1,140 Descending Houston Center
09:04PM 29.7339 -95.1497 204° Southwest 296 341 8,800 -1,080 Descending Houston Center
09:05PM 29.6908 -95.1728 205° Southwest 294 338 8,200 -1,020 Descending Houston Center
09:05PM 29.6556 -95.1906 204° Southwest 294 338 7,800 -1,020 Descending Houston Center
09:06PM 29.5853 -95.2256 203° Southwest 292 336 7,000 -1,020 Descending Houston Center
09:07PM 29.5406 -95.2619 215° Southwest 280 322 6,100 -1,320 Descending Houston Center
09:07PM 29.5253 -95.2783 223° Southwest 264 304 5,700 -1,020 Descending Houston Center
09:08PM 29.5100 -95.3314 252° West 263 303 5,100 -720 Descending Houston Center
09:08PM 29.5108 -95.3497 273° West 220 253 5,000 -720 Descending Houston Center
09:09PM 29.5267 -95.3853 297° West 219 252 4,400 -840 Descending Houston Center
09:09PM 29.5389 -95.3800 21° North 162 186 4,200 -720 Descending Houston Center
09:10PM 29.5622 -95.3575 40° Northeast 162 186 3,700 -1,200 Descending Houston Center
09:11PM 29.5717 -95.3497 36° Northeast 113 130 2,900 -1,980 Descending Houston Center
09:11PM 29.5892 -95.3358 35° Northeast 135 155 1,700 -1,800 Descending Houston Center
09:12PM 29.6011 -95.3269 33° Northeast 134 154 1,100 -1,020 Descending Houston Center
09:13PM 29.6256 -95.2975 46° Northeast 119 137 400 -540 Descending Houston Center
09:13PM 29.6447 -95.2789 40° Northeast 126 145 200 -300 Descending Houston Center